Time;durP1;ratioP1;P1;durP2;ratioP2;P2;SDS_P1;SDS_P2;PMS_P1;PMS_P2;Temp;Humidity;BMP_temperature;BMP_pressure;BME280_temperature;BME280_humidity;BME280_pressure;Samples;Min_cycle;Max_cycle;Signal;HPM_P1;HPM_P2
2022/10/19 00:01:05;;;;;;;6.80;2.88;;;;;;;8.01;100.00;102824.81;5089709;28;20028;-67
2022/10/19 00:03:32;;;;;;;5.20;2.92;;;;;;;8.03;100.00;102827.34;5089516;28;20040;-67
2022/10/19 00:05:58;;;;;;;7.40;3.50;;;;;;;7.99;100.00;102828.56;5089069;28;20027;-67
2022/10/19 00:08:23;;;;;;;10.40;3.25;;;;;;;7.91;100.00;102823.91;5089449;28;20061;-67
2022/10/19 00:10:49;;;;;;;9.07;3.22;;;;;;;7.81;100.00;102815.06;5089521;28;20375;-67
2022/10/19 00:13:14;;;;;;;9.27;3.90;;;;;;;7.75;100.00;102812.91;5089491;28;20074;-67
2022/10/19 00:15:40;;;;;;;7.38;3.53;;;;;;;7.61;100.00;102800.78;5089365;28;20028;-67
2022/10/19 00:18:07;;;;;;;6.78;3.28;;;;;;;7.54;100.00;102796.97;5089400;28;20050;-67
2022/10/19 00:20:33;;;;;;;8.05;3.53;;;;;;;7.54;100.00;102810.22;5089405;28;20024;-68
2022/10/19 00:22:59;;;;;;;6.75;3.30;;;;;;;7.52;100.00;102804.19;5088862;28;20038;-67
2022/10/19 00:25:24;;;;;;;6.00;3.30;;;;;;;7.51;100.00;102813.16;5089361;28;20028;-67
2022/10/19 00:27:50;;;;;;;6.80;3.38;;;;;;;7.48;100.00;102808.94;5089496;28;20130;-67
2022/10/19 00:30:15;;;;;;;6.85;3.00;;;;;;;7.43;100.00;102811.13;5089428;28;20620;-67
2022/10/19 00:32:41;;;;;;;7.18;3.22;;;;;;;7.45;100.00;102818.00;5089455;28;20036;-67
2022/10/19 00:35:06;;;;;;;5.20;2.60;;;;;;;7.43;100.00;102813.78;5089381;28;20031;-66
2022/10/19 00:37:32;;;;;;;3.65;2.50;;;;;;;7.38;100.00;102800.06;5089598;28;20119;-66
2022/10/19 00:39:57;;;;;;;8.55;2.80;;;;;;;7.32;100.00;102803.22;5089269;28;20513;-66
2022/10/19 00:42:22;;;;;;;5.30;3.42;;;;;;;7.27;100.00;102803.59;5089020;28;20109;-66
2022/10/19 00:44:48;;;;;;;12.02;3.50;;;;;;;7.21;100.00;102794.34;5089218;28;20045;-66
2022/10/19 00:47:14;;;;;;;13.82;5.57;;;;;;;7.11;100.00;102795.22;5089191;28;20055;-66
2022/10/19 00:49:44;;;;;;;4.07;3.33;;;;;;;7.13;100.00;102798.59;5089039;28;20667;-66
2022/10/19 00:52:16;;;;;;;8.57;3.97;;;;;;;7.17;100.00;102797.38;5089219;28;20077;-66
2022/10/19 00:54:44;;;;;;;4.65;3.13;;;;;;;7.18;100.00;102807.03;5089097;28;20111;-66
2022/10/19 00:57:10;;;;;;;5.57;3.00;;;;;;;7.20;100.00;102813.03;5088790;28;20560;-66
2022/10/19 00:59:37;;;;;;;5.45;2.92;;;;;;;7.21;100.00;102812.06;5092833;28;20081;-65
2022/10/19 01:02:04;;;;;;;12.63;4.03;;;;;;;7.18;100.00;102807.03;5091842;28;20425;-66
2022/10/19 01:04:32;;;;;;;8.93;3.72;;;;;;;7.24;100.00;102801.19;5093104;28;20366;-66
2022/10/19 01:06:59;;;;;;;9.88;4.60;;;;;;;7.31;100.00;102790.91;5092963;28;20028;-66
2022/10/19 01:09:24;;;;;;;13.50;4.93;;;;;;;7.38;100.00;102794.75;5092832;28;20047;-66
2022/10/19 01:11:49;;;;;;;12.32;5.30;;;;;;;7.50;100.00;102800.88;5092918;28;20028;-66
2022/10/19 01:14:29;;;;;;;13.00;5.33;;;;;;;7.58;100.00;102804.53;5092815;28;20038;-66
2022/10/19 01:17:19;;;;;;;11.38;5.53;;;;;;;7.63;100.00;102805.00;5092785;28;20323;-66
2022/10/19 01:20:03;;;;;;;14.25;6.10;;;;;;;7.68;100.00;102794.00;5092747;28;20024;-66
2022/10/19 01:22:40;;;;;;;14.27;6.25;;;;;;;7.72;100.00;102791.91;5092586;28;20028;-66
2022/10/19 01:25:33;;;;;;;24.58;7.97;;;;;;;7.77;100.00;102787.91;5092419;28;20035;-66
2022/10/19 01:28:21;;;;;;;17.23;6.63;;;;;;;7.87;100.00;102791.47;5092293;28;20436;-66
2022/10/19 01:31:00;;;;;;;10.73;5.40;;;;;;;7.85;100.00;102785.44;5091881;28;20407;-66
2022/10/19 01:33:41;;;;;;;13.13;5.63;;;;;;;7.91;100.00;102800.00;5092274;28;20039;-66
2022/10/19 01:36:21;;;;;;;11.05;5.63;;;;;;;7.90;100.00;102785.88;5092447;28;20024;-66
2022/10/19 01:38:52;;;;;;;19.90;7.72;;;;;;;7.89;100.00;102788.69;5091739;28;20035;-66
2022/10/19 01:41:18;;;;;;;12.40;5.60;;;;;;;7.90;100.00;102788.53;5092310;28;20023;-66
2022/10/19 01:43:58;;;;;;;14.52;6.38;;;;;;;7.88;100.00;102787.81;5092204;28;20066;-66
2022/10/19 01:46:40;;;;;;;13.57;6.03;;;;;;;7.90;100.00;102788.53;5092274;28;20023;-66
2022/10/19 01:49:26;;;;;;;22.27;6.95;;;;;;;7.93;100.00;102787.44;5092261;28;20033;-66
2022/10/19 01:51:59;;;;;;;20.23;6.50;;;;;;;7.95;100.00;102792.63;5092144;28;20469;-66
2022/10/19 01:54:29;;;;;;;15.98;5.70;;;;;;;7.89;100.00;102786.84;5092114;28;20056;-66
2022/10/19 01:56:58;;;;;;;14.18;5.95;;;;;;;7.87;100.00;102783.47;5091633;28;20070;-66
2022/10/19 01:59:25;;;;;;;10.68;5.28;;;;;;;7.86;100.00;102792.44;5091469;28;20048;-66
2022/10/19 02:01:52;;;;;;;10.65;4.97;;;;;;;7.83;100.00;102778.56;5091836;28;20077;-66
2022/10/19 02:04:21;;;;;;;10.25;5.18;;;;;;;7.73;100.00;102769.69;5091807;28;20031;-66
2022/10/19 02:06:49;;;;;;;11.55;6.15;;;;;;;7.73;100.00;102772.34;5091710;28;20072;-66
2022/10/19 02:09:17;;;;;;;8.60;4.80;;;;;;;7.72;100.00;102778.63;5091564;28;20020;-66
2022/10/19 02:11:45;;;;;;;11.52;4.82;;;;;;;7.69;100.00;102775.25;5091604;28;20386;-65
2022/10/19 02:14:14;;;;;;;9.43;5.00;;;;;;;7.65;100.00;102767.69;5091674;28;20107;-65
2022/10/19 02:16:47;;;;;;;9.38;5.28;;;;;;;7.64;100.00;102766.00;5091689;28;20058;-66
2022/10/19 02:19:15;;;;;;;9.23;4.88;;;;;;;7.61;100.00;102759.13;5090220;28;20064;-66
2022/10/19 02:21:41;;;;;;;12.68;5.00;;;;;;;7.62;100.00;102754.66;5091459;28;20426;-66
2022/10/19 02:24:06;;;;;;;13.30;5.35;;;;;;;7.51;100.00;102739.66;5091292;28;20028;-66
2022/10/19 02:26:32;;;;;;;10.75;5.03;;;;;;;7.56;100.00;102755.19;5091208;28;20127;-65
2022/10/19 02:28:57;;;;;;;9.45;5.38;;;;;;;7.49;100.00;102738.94;5091461;28;20032;-66
2022/10/19 02:31:24;;;;;;;12.35;5.90;;;;;;;7.49;100.00;102743.41;5091489;28;20082;-66
2022/10/19 02:33:49;;;;;;;11.30;5.28;;;;;;;7.43;100.00;102740.28;5091039;28;20063;-65
2022/10/19 02:36:16;;;;;;;9.35;5.15;;;;;;;7.43;100.00;102742.94;5089920;28;20055;-66
2022/10/19 02:38:41;;;;;;;10.93;5.95;;;;;;;7.42;100.00;102730.66;5091095;28;20039;-66
2022/10/19 02:41:35;;;;;;;14.15;6.20;;;;;;;7.42;100.00;102727.16;5091131;28;20392;-66
2022/10/19 02:44:13;;;;;;;10.82;5.38;;;;;;;7.33;100.00;102723.44;5071742;28;20052;-66
2022/10/19 02:46:50;;;;;;;11.40;4.93;;;;;;;7.36;100.00;102722.34;5090862;28;20039;-66
2022/10/19 02:49:17;;;;;;;9.25;4.80;;;;;;;7.37;100.00;102730.19;5091045;28;20028;-66
2022/10/19 02:52:03;;;;;;;18.17;6.18;;;;;;;7.36;100.00;102717.03;5090944;28;20061;-66
2022/10/19 02:54:29;;;;;;;14.77;6.38;;;;;;;7.35;100.00;102715.38;5091042;28;20024;-66
2022/10/19 02:56:55;;;;;;;8.38;4.97;;;;;;;7.34;100.00;102717.19;5090901;28;20368;-66
2022/10/19 02:59:20;;;;;;;8.93;4.78;;;;;;;7.34;100.00;102719.84;5090821;28;20039;-66
2022/10/19 03:01:45;;;;;;;12.43;5.43;;;;;;;7.35;100.00;102721.53;5090553;28;20032;-66
2022/10/19 03:04:11;;;;;;;13.57;4.70;;;;;;;7.38;100.00;102729.22;5090616;28;20467;-66
2022/10/19 03:06:36;;;;;;;11.93;5.22;;;;;;;7.38;100.00;102734.53;5090457;28;20078;-65
2022/10/19 03:09:02;;;;;;;11.20;5.55;;;;;;;7.37;100.00;102729.38;5090597;28;20036;-66
2022/10/19 03:11:27;;;;;;;5.85;4.20;;;;;;;7.34;100.00;102734.94;5090517;28;20024;-66
2022/10/19 03:13:53;;;;;;;11.68;4.85;;;;;;;7.25;100.00;102718.78;5090348;28;20024;-66
2022/10/19 03:16:18;;;;;;;8.50;4.32;;;;;;;7.32;100.00;102735.06;5090382;28;20114;-66
2022/10/19 03:18:43;;;;;;;13.35;5.03;;;;;;;7.32;100.00;102740.38;5090285;28;20016;-65
2022/10/19 03:21:12;;;;;;;9.00;4.07;;;;;;;7.30;100.00;102737.00;5089667;28;20532;-66
2022/10/19 03:23:38;;;;;;;9.18;5.55;;;;;;;7.27;100.00;102726.63;5090021;28;20020;-66
2022/10/19 03:26:05;;;;;;;17.45;5.60;;;;;;;7.23;100.00;102731.38;5089922;28;20471;-66
2022/10/19 03:28:31;;;;;;;9.27;4.38;;;;;;;7.22;100.00;102727.00;5090176;28;20028;-65
2022/10/19 03:30:57;;;;;;;9.25;4.60;;;;;;;7.21;100.00;102728.00;5090154;28;20367;-67
2022/10/19 03:33:23;;;;;;;25.42;5.72;;;;;;;7.19;100.00;102721.13;5090246;28;20502;-67
2022/10/19 03:35:48;;;;;;;9.55;4.20;;;;;;;7.18;100.00;102722.94;5090106;28;20032;-67
2022/10/19 03:38:14;;;;;;;9.45;4.22;;;;;;;7.19;100.00;102716.66;5090050;28;20047;-67
2022/10/19 03:40:39;;;;;;;13.48;5.70;;;;;;;7.16;100.00;102724.03;5088658;28;20040;-67
2022/10/19 03:43:05;;;;;;;11.02;4.50;;;;;;;7.13;100.00;102722.50;5088359;28;20048;-67
2022/10/19 03:45:30;;;;;;;18.35;5.40;;;;;;;7.16;100.00;102724.03;5090047;28;20093;-67
2022/10/19 03:47:55;;;;;;;15.52;5.50;;;;;;;7.12;100.00;102718.13;5090020;28;20387;-67
2022/10/19 03:50:21;;;;;;;12.73;4.38;;;;;;;7.09;100.00;102726.34;5089755;28;20467;-67
2022/10/19 03:52:48;;;;;;;11.07;5.75;;;;;;;7.07;100.00;102719.50;5089817;28;20020;-68
2022/10/19 03:55:14;;;;;;;9.00;4.45;;;;;;;7.07;100.00;102722.16;5089850;28;20024;-67
2022/10/19 03:57:40;;;;;;;13.73;5.53;;;;;;;7.07;100.00;102717.66;5089583;28;20027;-67
2022/10/19 04:00:07;;;;;;;12.57;4.75;;;;;;;7.09;100.00;102728.16;5089692;28;20081;-67
2022/10/19 04:02:32;;;;;;;9.35;4.70;;;;;;;7.08;100.00;102734.47;5089357;28;20054;-67
2022/10/19 04:04:57;;;;;;;13.98;4.72;;;;;;;7.05;100.00;102737.34;5089574;28;20120;-67
2022/10/19 04:07:23;;;;;;;8.85;5.38;;;;;;;7.07;100.00;102736.25;5089689;28;20390;-67
2022/10/19 04:09:48;;;;;;;11.88;4.28;;;;;;;7.05;100.00;102740.00;5089620;28;20081;-67
2022/10/19 04:12:13;;;;;;;16.63;5.68;;;;;;;7.02;100.00;102744.59;5089485;28;20081;-67
2022/10/19 04:14:39;;;;;;;9.30;4.57;;;;;;;6.99;100.00;102744.84;5089534;28;20031;-66
2022/10/19 04:17:05;;;;;;;14.48;4.63;;;;;;;6.98;100.00;102739.66;5089601;28;20103;-66
2022/10/19 04:19:30;;;;;;;13.20;6.32;;;;;;;6.92;100.00;102738.38;5089531;28;20425;-65
2022/10/19 04:21:56;;;;;;;7.28;5.03;;;;;;;6.88;100.00;102739.56;5089341;28;20031;-66
2022/10/19 04:24:21;;;;;;;9.93;4.72;;;;;;;6.83;100.00;102732.97;5089446;28;20110;-66
2022/10/19 04:26:49;;;;;;;7.57;4.28;;;;;;;6.83;100.00;102731.16;5088606;28;20467;-65
2022/10/19 04:29:17;;;;;;;10.77;4.68;;;;;;;6.83;100.00;102728.50;5089087;28;20028;-66
2022/10/19 04:31:44;;;;;;;12.23;4.70;;;;;;;6.79;100.00;102732.38;5089294;28;20032;-66
2022/10/19 04:34:10;;;;;;;13.05;4.95;;;;;;;6.82;100.00;102733.94;5093041;28;20438;-66
2022/10/19 04:36:36;;;;;;;9.70;4.47;;;;;;;6.79;100.00;102730.56;5093478;28;20949;-65
2022/10/19 04:39:03;;;;;;;12.85;5.55;;;;;;;6.78;100.00;102728.03;5093616;28;20032;-66
2022/10/19 04:41:29;;;;;;;10.23;4.60;;;;;;;6.72;100.00;102724.06;5093317;28;20028;-66
2022/10/19 04:43:59;;;;;;;13.13;5.05;;;;;;;6.69;100.00;102726.97;5093193;28;20056;-66
2022/10/19 04:46:26;;;;;;;11.80;5.38;;;;;;;6.69;100.00;102729.63;5092944;28;20032;-66
2022/10/19 04:48:52;;;;;;;11.18;5.30;;;;;;;6.66;100.00;102723.75;5093175;28;20471;-66
2022/10/19 04:51:18;;;;;;;9.30;4.88;;;;;;;6.63;100.00;102724.84;5093029;28;20016;-66
2022/10/19 04:53:44;;;;;;;11.93;4.78;;;;;;;6.64;100.00;102718.56;5093350;28;20027;-66
2022/10/19 04:56:18;;;;;;;10.25;5.05;;;;;;;6.64;100.00;102718.56;5093057;28;20032;-65
2022/10/19 04:58:44;;;;;;;12.95;5.95;;;;;;;6.60;100.00;102717.09;5093135;28;20485;-65
2022/10/19 05:01:11;;;;;;;9.90;5.85;;;;;;;6.63;100.00;102721.31;5091566;28;20108;-66
2022/10/19 05:03:37;;;;;;;12.05;5.32;;;;;;;6.60;100.00;102722.41;5093024;28;20027;-66
2022/10/19 05:06:03;;;;;;;10.85;5.80;;;;;;;6.60;100.00;102719.75;5092934;28;20043;-66
2022/10/19 05:08:28;;;;;;;12.88;5.30;;;;;;;6.61;100.00;102717.97;5092695;28;20035;-65
2022/10/19 05:10:54;;;;;;;17.20;5.70;;;;;;;6.60;100.00;102717.09;5092765;28;20383;-66
2022/10/19 05:13:19;;;;;;;13.85;5.88;;;;;;;6.58;100.00;102719.06;5092646;28;20042;-65
2022/10/19 05:15:54;;;;;;;13.63;6.05;;;;;;;6.58;100.00;102730.50;5092867;28;20083;-66
2022/10/19 05:18:20;;;;;;;11.30;5.30;;;;;;;6.56;100.00;102718.34;5092614;28;20032;-66
2022/10/19 05:20:45;;;;;;;11.07;6.20;;;;;;;6.57;100.00;102714.72;5091422;28;20035;-65
2022/10/19 05:23:10;;;;;;;10.38;5.13;;;;;;;6.55;100.00;102714.84;5092452;28;20119;-66
2022/10/19 05:25:36;;;;;;;14.60;5.85;;;;;;;6.46;100.00;102710.28;5092119;28;20123;-66
2022/10/19 05:28:01;;;;;;;12.75;5.93;;;;;;;6.53;100.00;102721.25;5090808;28;20529;-65
2022/10/19 05:30:26;;;;;;;15.85;4.75;;;;;;;6.51;100.00;102718.72;5092390;28;20036;-66
2022/10/19 05:32:51;;;;;;;12.95;6.07;;;;;;;6.51;100.00;102724.00;5092436;28;20024;-65
2022/10/19 05:35:17;;;;;;;11.25;5.32;;;;;;;6.48;100.00;102721.59;5092546;28;20499;-66
2022/10/19 05:37:42;;;;;;;12.52;6.40;;;;;;;6.42;100.00;102715.94;5092617;28;20032;-66
2022/10/19 05:40:08;;;;;;;10.25;4.80;;;;;;;6.37;100.00;102711.03;5092318;28;20043;-66
2022/10/19 05:42:34;;;;;;;7.72;4.65;;;;;;;6.22;100.00;102693.72;5092009;28;20548;-65
2022/10/19 05:44:59;;;;;;;13.98;4.78;;;;;;;6.24;100.00;102705.88;5091701;28;20059;-66
2022/10/19 05:47:24;;;;;;;10.32;5.53;;;;;;;6.19;100.00;102701.91;5092314;28;20117;-65
2022/10/19 05:49:49;;;;;;;8.27;4.97;;;;;;;6.20;100.00;102703.59;5092172;28;20069;-65
2022/10/19 05:52:16;;;;;;;9.57;4.97;;;;;;;6.18;100.00;102701.03;5092112;28;20055;-66
2022/10/19 05:54:42;;;;;;;11.38;4.95;;;;;;;6.14;100.00;102695.16;5092019;28;20035;-66
2022/10/19 05:57:07;;;;;;;14.73;5.10;;;;;;;6.09;100.00;102694.69;5090688;28;20188;-65
2022/10/19 05:59:32;;;;;;;10.25;6.13;;;;;;;6.06;100.00;102689.63;5091959;28;20032;-66
2022/10/19 06:01:58;;;;;;;10.43;5.30;;;;;;;6.07;100.00;102688.66;5091847;28;20024;-66
2022/10/19 06:04:23;;;;;;;12.18;6.22;;;;;;;6.09;100.00;102689.38;5091909;28;20065;-66
2022/10/19 06:06:49;;;;;;;11.27;5.43;;;;;;;6.08;100.00;102685.06;5091603;28;20510;-65
2022/10/19 06:09:14;;;;;;;10.80;5.15;;;;;;;6.11;100.00;102692.75;5090286;28;20031;-65
2022/10/19 06:11:41;;;;;;;13.98;6.38;;;;;;;6.17;100.00;102698.53;5091557;28;20486;-65
2022/10/19 06:14:11;;;;;;;14.35;6.75;;;;;;;6.19;100.00;102705.41;5091694;28;20748;-65
2022/10/19 06:16:37;;;;;;;10.05;5.95;;;;;;;6.19;100.00;102697.44;5091480;28;20201;-66
2022/10/19 06:19:04;;;;;;;13.57;5.95;;;;;;;6.17;100.00;102688.78;5091525;28;20122;-66
2022/10/19 06:21:31;;;;;;;12.82;6.43;;;;;;;6.23;100.00;102690.91;5091263;28;20535;-66
2022/10/19 06:23:59;;;;;;;12.32;6.35;;;;;;;6.27;100.00;102702.13;5090634;28;20035;-66
2022/10/19 06:26:25;;;;;;;12.73;6.00;;;;;;;6.26;100.00;102695.13;5091339;28;20028;-66
2022/10/19 06:28:54;;;;;;;14.38;6.03;;;;;;;6.26;100.00;102689.84;5091213;28;20024;-66
2022/10/19 06:31:19;;;;;;;22.50;6.88;;;;;;;6.20;100.00;102693.81;5091009;28;20031;-65
2022/10/19 06:33:45;;;;;;;12.27;6.25;;;;;;;6.14;100.00;102683.72;5091173;28;20467;-66
2022/10/19 06:36:16;;;;;;;14.57;6.97;;;;;;;6.17;100.00;102683.47;5090707;28;20028;-69
2022/10/19 06:38:42;;;;;;;15.20;8.23;;;;;;;6.11;100.00;102686.63;5091200;28;20463;-67
2022/10/19 06:41:07;;;;;;;21.98;7.20;;;;;;;6.13;100.00;102693.47;5091049;28;20085;-67
2022/10/19 06:43:33;;;;;;;16.08;7.88;;;;;;;6.19;100.00;102691.31;5090905;28;20075;-67
2022/10/19 06:46:03;;;;;;;14.25;7.82;;;;;;;6.21;100.00;102684.06;5090876;28;20032;-67
2022/10/19 06:48:28;;;;;;;14.63;8.63;;;;;;;6.24;100.00;102684.69;5090967;28;20093;-67
2022/10/19 06:50:58;;;;;;;15.90;8.00;;;;;;;6.29;100.00;102690.44;5090949;28;20028;-67
2022/10/19 06:53:23;;;;;;;14.50;7.70;;;;;;;6.33;100.00;102691.88;5090841;28;20077;-67
2022/10/19 06:55:49;;;;;;;15.80;8.60;;;;;;;6.38;100.00;102690.66;5089932;28;20464;-66
2022/10/19 06:58:14;;;;;;;18.42;9.43;;;;;;;6.47;100.00;102701.38;5090759;28;20034;-67
2022/10/19 07:00:39;;;;;;;21.58;9.55;;;;;;;6.50;100.00;102695.81;5088957;28;20063;-66
2022/10/19 07:03:05;;;;;;;14.85;7.70;;;;;;;6.61;100.00;102707.38;5090228;28;20120;-66
2022/10/19 07:05:30;;;;;;;18.75;8.63;;;;;;;6.67;100.00;102709.50;5090545;28;20150;-66
2022/10/19 07:07:56;;;;;;;18.92;8.20;;;;;;;6.70;100.00;102711.91;5089316;28;20078;-66
2022/10/19 07:10:22;;;;;;;16.98;7.90;;;;;;;6.78;100.00;102712.13;5090569;28;20032;-68
2022/10/19 07:12:47;;;;;;;19.98;9.65;;;;;;;6.83;100.00;102712.59;5090494;28;20038;-68
2022/10/19 07:15:12;;;;;;;16.00;8.65;;;;;;;6.90;100.00;102708.47;5090289;28;20032;-67
2022/10/19 07:17:38;;;;;;;19.60;8.75;;;;;;;6.94;100.00;102704.59;5090105;28;20030;-68
2022/10/19 07:20:03;;;;;;;16.40;8.55;;;;;;;6.97;100.00;102695.56;5089973;28;20036;-67
2022/10/19 07:22:29;;;;;;;16.58;7.90;;;;;;;6.96;100.00;102692.03;5090418;28;20032;-67
2022/10/19 07:24:54;;;;;;;16.48;9.25;;;;;;;7.04;100.00;102704.66;5090364;28;20036;-69
2022/10/19 07:27:19;;;;;;;15.63;9.15;;;;;;;7.10;100.00;102698.88;5089065;28;20028;-68
2022/10/19 07:29:45;;;;;;;16.63;8.43;;;;;;;7.18;100.00;102696.41;5090295;28;20046;-69
2022/10/19 07:32:10;;;;;;;18.35;8.45;;;;;;;7.24;100.00;102695.06;5089737;28;20027;-66
2022/10/19 07:34:35;;;;;;;19.08;9.93;;;;;;;7.33;100.00;102704.88;5090040;28;20032;-66
2022/10/19 07:37:01;;;;;;;17.23;8.35;;;;;;;7.42;100.00;102693.50;5088173;28;20123;-67
2022/10/19 07:39:26;;;;;;;23.42;9.93;;;;;;;7.51;100.00;102691.84;5090065;28;20142;-69
2022/10/19 07:41:52;;;;;;;17.15;8.50;;;;;;;7.59;100.00;102693.84;5090005;28;20058;-71
2022/10/19 07:44:17;;;;;;;15.98;8.15;;;;;;;7.67;100.00;102694.88;5088446;28;20056;-69
2022/10/19 07:46:43;;;;;;;15.43;8.80;;;;;;;7.78;100.00;102704.59;5089825;28;20435;-67
2022/10/19 07:49:12;;;;;;;15.02;8.10;;;;;;;7.88;100.00;102704.63;5089709;28;20027;-66
2022/10/19 07:51:38;;;;;;;30.25;10.43;;;;;;;7.95;100.00;102704.94;5089679;28;20483;-75
2022/10/19 07:54:04;;;;;;;17.20;9.45;;;;;;;8.06;100.00;102705.69;5089498;28;20057;-66
2022/10/19 07:56:29;;;;;;;19.33;8.25;;;;;;;8.13;100.00;102695.38;5089779;28;20055;-72
2022/10/19 07:58:57;;;;;;;17.42;8.63;;;;;;;8.23;100.00;102698.06;5089573;28;20374;-68
2022/10/19 08:01:24;;;;;;;23.80;9.13;;;;;;;8.28;100.00;102694.00;5089486;28;20036;-67
2022/10/19 08:03:54;;;;;;;21.00;9.25;;;;;;;8.34;100.00;102693.47;5089542;28;20024;-68
2022/10/19 08:06:20;;;;;;;17.42;8.63;;;;;;;8.45;100.00;102686.38;5089299;28;20483;-69
2022/10/19 08:08:47;;;;;;;18.08;8.73;;;;;;;8.51;100.00;102681.38;5089142;28;20530;-68
2022/10/19 08:11:15;;;;;;;16.67;7.78;;;;;;;8.60;100.00;102681.50;5089352;28;20040;-69
2022/10/19 08:13:41;;;;;;;20.48;9.25;;;;;;;8.70;100.00;102677.03;5088449;28;20103;-67
2022/10/19 08:16:31;;;;;;;15.23;8.38;;;;;;;8.79;100.00;102678.84;5089335;28;20179;-66
2022/10/19 08:19:04;;;;;;;16.42;7.97;;;;;;;8.91;100.00;102674.25;5088961;28;20104;-66
2022/10/19 08:21:30;;;;;;;18.20;8.30;;;;;;;9.03;100.00;102680.25;5089349;28;20020;-66
2022/10/19 08:23:56;;;;;;;14.52;7.55;;;;;;;9.13;100.00;102683.75;5089350;28;20544;-65
2022/10/19 08:26:21;;;;;;;14.27;7.60;;;;;;;9.22;100.00;102677.53;5089405;28;20035;-66
2022/10/19 08:28:47;;;;;;;14.93;8.00;;;;;;;9.30;100.00;102674.16;5089258;28;20116;-68
2022/10/19 08:31:15;;;;;;;18.17;7.28;;;;;;;9.42;100.00;102679.19;5088954;28;20126;-67
2022/10/19 08:33:40;;;;;;;13.77;6.65;;;;;;;9.45;100.00;102664.75;5088763;28;20020;-68
2022/10/19 08:36:08;;;;;;;17.90;6.82;;;;;;;9.65;100.00;102684.19;5089043;28;20028;-65
2022/10/19 08:38:35;;;;;;;18.75;7.65;;;;;;;9.75;100.00;102674.34;5089117;28;20043;-66
2022/10/19 08:41:21;;;;;;;14.82;6.63;;;;;;;9.87;100.00;102678.47;5088721;28;20390;-66
2022/10/19 08:44:24;;;;;;;14.35;7.03;;;;;;;9.97;100.00;102674.94;5089049;28;20149;-66
2022/10/19 08:46:52;;;;;;;9.77;5.60;;;;;;;10.07;100.00;102659.75;5089181;28;20040;-66
2022/10/19 08:49:22;;;;;;;13.60;5.85;;;;;;;10.09;100.00;102653.28;5089007;28;20067;-66
2022/10/19 08:52:10;;;;;;;10.77;5.72;;;;;;;10.24;100.00;102650.09;5089006;28;20030;-66
2022/10/19 08:54:59;;;;;;;15.73;6.43;;;;;;;10.35;100.00;102644.59;5088000;28;20062;-66
2022/10/19 08:57:29;;;;;;;10.73;5.47;;;;;;;10.45;100.00;102642.69;5088432;28;20051;-65
2022/10/19 09:00:29;;;;;;;10.65;5.70;;;;;;;10.57;100.00;102643.28;5088933;28;20028;-65
2022/10/19 09:03:22;;;;;;;11.93;5.10;;;;;;;10.64;100.00;102638.19;5081421;28;20036;-66
2022/10/19 09:06:04;;;;;;;10.45;4.97;;;;;;;10.70;100.00;102637.56;5086573;28;20051;-66
2022/10/19 09:08:29;;;;;;;12.43;4.82;;;;;;;10.76;100.00;102642.28;5088972;28;20059;-66
2022/10/19 09:10:56;;;;;;;12.38;4.95;;;;;;;10.87;100.00;102649.22;5086690;28;20027;-67
2022/10/19 09:13:24;;;;;;;10.90;5.72;;;;;;;10.96;100.00;102641.13;5084371;28;20051;-66
2022/10/19 09:15:51;;;;;;;10.63;4.90;;;;;;;11.05;100.00;102636.69;5084803;28;20108;-65
2022/10/19 09:18:28;;;;;;;10.57;4.03;;;;;;;11.14;100.00;102626.91;5084706;28;20035;-66
2022/10/19 09:20:59;;;;;;;8.48;4.35;;;;;;;11.16;100.00;102627.56;5087906;28;20111;-67
2022/10/19 09:23:57;;;;;;;7.97;3.70;;;;;;;11.18;100.00;102621.09;5088270;28;20040;-68
2022/10/19 09:26:28;;;;;;;8.50;3.85;;;;;;;11.31;100.00;102639.38;5088355;28;20032;-68
2022/10/19 09:28:59;;;;;;;7.18;3.50;;;;;;;11.40;100.00;102626.91;5087719;28;20505;-67
2022/10/19 09:31:35;;;;;;;8.32;4.13;;;;;;;11.45;98.54;102624.59;5088282;28;20065;-67
2022/10/19 09:34:05;;;;;;;7.50;3.30;;;;;;;11.56;100.00;102621.66;5087717;28;20360;-67
2022/10/19 09:36:44;;;;;;;7.68;3.45;;;;;;;11.66;98.88;102620.69;5087932;28;20055;-67
2022/10/19 09:39:13;;;;;;;9.13;3.83;;;;;;;11.74;96.68;102621.56;5087999;28;20669;-68
2022/10/19 09:41:48;;;;;;;4.85;2.70;;;;;;;11.78;95.01;102628.25;5087519;28;20054;-68
2022/10/19 09:44:14;;;;;;;7.63;3.10;;;;;;;11.81;93.64;102627.09;5086929;28;20047;-67
2022/10/19 09:46:50;;;;;;;6.38;2.30;;;;;;;11.85;94.37;102629.28;5087114;28;20028;-68
2022/10/19 09:49:17;;;;;;;8.10;2.40;;;;;;;11.91;94.12;102633.19;5087798;28;20035;-69
2022/10/19 09:51:50;;;;;;;5.97;2.35;;;;;;;11.97;93.08;102627.22;5087861;28;20032;-68
2022/10/19 09:54:24;;;;;;;6.07;2.97;;;;;;;12.05;94.21;102621.03;5088014;28;20095;-69
2022/10/19 09:56:54;;;;;;;6.07;3.00;;;;;;;12.14;94.75;102630.75;5087026;28;20035;-69
2022/10/19 09:59:22;;;;;;;4.25;2.85;;;;;;;12.18;91.43;102616.06;5088219;28;20057;-68
2022/10/19 10:02:00;;;;;;;5.72;2.13;;;;;;;12.19;90.60;102623.06;5091829;28;20043;-68
2022/10/19 10:04:25;;;;;;;7.75;3.00;;;;;;;12.15;89.92;102613.69;5091812;28;20028;-69
2022/10/19 10:06:53;;;;;;;2.15;1.95;;;;;;;12.19;90.05;102608.88;5091909;28;20028;-68
2022/10/19 10:09:25;;;;;;;9.98;3.03;;;;;;;12.22;90.53;102606.69;5091680;28;20032;-68
2022/10/19 10:11:52;;;;;;;5.63;2.20;;;;;;;12.22;89.67;102608.53;5091955;28;20057;-68
2022/10/19 10:14:31;;;;;;;6.38;2.60;;;;;;;12.21;90.95;102602.34;5091689;28;20154;-68
2022/10/19 10:17:01;;;;;;;9.13;3.40;;;;;;;12.30;91.04;102605.88;5091717;28;20028;-68
2022/10/19 10:19:29;;;;;;;4.60;2.72;;;;;;;12.39;89.63;102598.69;5091620;28;20028;-68
2022/10/19 10:21:56;;;;;;;7.85;2.55;;;;;;;12.39;90.28;102585.31;5091466;28;20035;-68
2022/10/19 10:24:28;;;;;;;6.05;2.85;;;;;;;12.49;90.45;102586.00;5091622;28;20024;-68
2022/10/19 10:27:03;;;;;;;6.30;2.90;;;;;;;12.54;89.26;102572.94;5091304;28;20109;-68
2022/10/19 10:29:34;;;;;;;9.25;2.30;;;;;;;12.68;88.66;102580.31;5090725;28;20020;-68
2022/10/19 10:32:12;;;;;;;12.82;4.95;;;;;;;12.78;86.72;102577.44;5090949;28;20472;-68
2022/10/19 10:35:06;;;;;;;9.50;3.20;;;;;;;12.91;88.77;102585.78;5090852;28;20020;-68
2022/10/19 10:37:37;;;;;;;6.82;3.38;;;;;;;13.05;89.00;102586.13;5089758;28;20052;-68
2022/10/19 10:40:04;;;;;;;8.68;2.60;;;;;;;13.14;87.29;102579.75;5091357;28;20390;-68
2022/10/19 10:42:38;;;;;;;7.82;2.70;;;;;;;13.21;86.46;102583.41;5091001;28;20109;-68
2022/10/19 10:45:15;;;;;;;7.78;2.85;;;;;;;13.21;87.56;102583.41;5090328;28;20028;-67
2022/10/19 10:47:46;;;;;;;8.50;2.85;;;;;;;13.19;84.45;102587.28;5090222;28;20032;-67
2022/10/19 10:50:26;;;;;;;15.90;3.67;;;;;;;13.17;84.98;102574.03;5091001;28;20024;-67
2022/10/19 10:53:03;;;;;;;11.93;2.85;;;;;;;13.11;84.25;102570.22;5090842;28;20048;-68
2022/10/19 10:55:30;;;;;;;8.00;3.47;;;;;;;13.03;84.45;102570.22;5090889;28;20470;-68
2022/10/19 10:58:17;;;;;;;7.57;2.92;;;;;;;12.99;85.12;102573.41;5090841;28;20051;-67
2022/10/19 11:00:44;;;;;;;9.18;3.17;;;;;;;12.96;84.11;102571.91;5090892;28;20388;-67
2022/10/19 11:03:24;;;;;;;5.10;3.47;;;;;;;12.96;84.88;102555.84;5090789;28;20123;-67
2022/10/19 11:05:57;;;;;;;5.88;3.03;;;;;;;12.94;85.22;102553.34;5090557;28;20463;-67
2022/10/19 11:08:34;;;;;;;7.05;3.22;;;;;;;12.91;84.51;102550.16;5090452;28;20028;-67
2022/10/19 11:11:05;;;;;;;11.98;3.15;;;;;;;12.84;83.80;102543.81;5090606;28;20032;-68
2022/10/19 11:13:47;;;;;;;6.97;2.10;;;;;;;12.83;83.95;102534.94;5090632;28;20073;-67
2022/10/19 11:16:16;;;;;;;6.65;2.22;;;;;;;12.83;84.19;102536.78;5090615;28;20040;-67
2022/10/19 11:18:42;;;;;;;7.50;3.42;;;;;;;12.87;84.14;102530.91;5090409;28;20020;-67
2022/10/19 11:21:41;;;;;;;7.27;2.90;;;;;;;13.01;84.10;102537.41;5090538;28;20034;-68
2022/10/19 11:24:17;;;;;;;8.38;2.25;;;;;;;13.06;83.69;102529.69;5082207;28;20292;-68
2022/10/19 11:27:09;;;;;;;11.05;3.40;;;;;;;13.20;84.43;102532.66;5090177;28;20046;-68
2022/10/19 11:29:53;;;;;;;11.52;3.47;;;;;;;13.28;84.24;102525.50;5089902;28;20104;-68